EW8291 Weather Reports


Display with metric or nautical units.
time (UTC)temp
F
wind
direction
speed
MPH
gust
MPH
rain 1hr
in
rain 24hr
in
rain mn
in
humidity
%
barometer
mb
20190122021622 -1 0 0.0 0.0 0.00 0.00 0.00 90 1008.9
20190122021604 17 22 0.0 1.0 0.00 0.00 0.00 100 1019.0
20190122021122 0 0 0.0 0.0 0.00 0.00 0.00 90 1009.0
20190122021105 17 22 1.0 2.0 0.00 0.00 0.00 100 1018.0
20190122020622 -1 0 0.0 0.0 0.00 0.00 0.00 90 1009.0
20190122020604 17 22 1.0 2.0 0.00 0.00 0.00 100 1018.0
20190122020124 -1 0 0.0 0.0 0.00 0.00 0.00 89 1009.0
20190122020105 17 22 1.0 2.0 0.00 0.00 0.00 100 1018.0
20190122015622 -1 0 0.0 0.0 0.00 0.00 0.00 89 1009.0
20190122015605 18 22 0.0 0.0 0.00 0.00 0.00 100 1019.0
20190122015122 0 0 0.0 0.0 0.00 0.00 0.00 90 1009.0
20190122015105 18 22 0.0 1.0 0.00 0.00 0.00 100 1019.0
20190122014623 -1 0 0.0 0.0 0.00 0.00 0.00 89 1009.1
20190122014604 18 22 1.0 2.0 0.00 0.00 0.00 100 1019.0
20190122014122 -1 0 0.0 0.0 0.00 0.00 0.00 90 1009.2
20190122014105 18 22 1.0 2.0 0.00 0.00 0.00 100 1019.0
20190122013622 0 0 0.0 0.0 0.00 0.00 0.00 89 1009.4
20190122013604 18 22 2.0 2.0 0.00 0.00 0.00 100 1019.0
20190122013122 0 0 0.0 0.0 0.00 0.00 0.00 90 1009.4
20190122013104 19 22 2.0 2.0 0.00 0.00 0.00 100 1019.0
20190122012622 0 0 0.0 0.0 0.00 0.00 0.00 90 1009.5
20190122012605 19 22 1.0 2.0 0.00 0.00 0.00 100 1019.0
20190122012122 -1 0 0.0 0.0 0.00 0.00 0.00 90 1009.6
20190122012105 19 22 2.0 3.0 0.00 0.00 0.00 100 1019.0
20190122011622 0 0 0.0 0.0 0.00 0.00 0.00 89 1009.7
20190122011605 19 22 1.0 3.0 0.00 0.00 0.00 100 1019.0
20190122011123 0 0 0.0 0.0 0.00 0.00 0.00 90 1009.7
20190122011105 18 22 3.0 3.0 0.00 0.00 0.00 100 1019.0
20190122010623 1 0 0.0 0.0 0.00 0.00 0.00 92 1009.9
20190122010604 18 22 2.0 2.0 0.00 0.00 0.00 100 1019.0
20190122010123 0 0 0.0 0.0 0.00 0.00 0.00 90 1010.0
20190122010105 19 22 2.0 3.0 0.00 0.00 0.00 100 1019.0
20190122005622 0 0 0.0 0.0 0.00 0.00 0.00 90 1010.0
20190122005605 18 22 3.0 3.0 0.00 0.00 0.00 100 1020.0
20190122005122 2 0 0.0 0.0 0.00 0.00 0.00 90 1010.0
20190122005104 18 22 1.0 3.0 0.00 0.00 0.00 100 1020.0
20190122004623 2 0 0.0 0.0 0.00 0.00 0.00 91 1009.9
20190122004604 19 22 2.0 3.0 0.00 0.00 0.00 100 1020.0
20190122004122 1 0 0.0 0.0 0.00 0.00 0.00 91 1010.0
20190122004105 19 22 2.0 3.0 0.00 0.00 0.00 100 1020.0
20190122003622 1 0 0.0 0.0 0.00 0.00 0.00 90 1010.0
20190122003605 18 22 2.0 3.0 0.00 0.00 0.00 100 1020.0
20190122003123 1 0 0.0 0.0 0.00 0.00 0.00 90 1010.1
20190122003105 19 22 2.0 2.0 0.00 0.00 0.00 100 1020.0
20190122002622 3 0 0.0 0.0 0.00 0.00 0.00 92 1010.2
20190122002605 19 22 2.0 5.0 0.00 0.00 0.00 100 1020.0
20190122002123 3 0 0.0 0.0 0.00 0.00 0.00 92 1010.2
20190122002105 19 22 3.0 3.0 0.00 0.00 0.00 100 1020.0
20190122001622 2 0 0.0 0.0 0.00 0.00 0.00 92 1010.2
20190122001605 19 22 2.0 3.0 0.00 0.00 0.00 100 1020.0
20190122001122 1 0 0.0 0.0 0.00 0.00 0.00 90 1010.4
20190122001104 19 22 1.0 2.0 0.00 0.00 0.00 100 1020.0
20190122000622 2 0 0.0 0.0 0.00 0.00 0.00 91 1010.3
20190122000605 19 22 3.0 3.0 0.00 0.00 0.00 100 1020.0
20190122000124 2 0 0.0 0.0 0.00 0.00 0.00 91 1010.5
20190122000105 18 22 0.0 2.0 0.00 0.00 0.00 100 1020.0
20190121235622 3 0 0.0 0.0 0.00 0.00 0.00 94 1010.4
20190121235605 19 22 2.0 2.0 0.00 0.00 0.00 100 1020.0
20190121235122 1 0 0.0 0.0 0.00 0.00 0.00 91 1010.4
20190121235104 19 22 1.0 2.0 0.00 0.00 0.00 100 1020.0
20190121234622 1 0 0.0 0.0 0.00 0.00 0.00 90 1010.5
20190121234605 19 22 2.0 2.0 0.00 0.00 0.00 100 1020.0
20190121234122 1 0 0.0 0.0 0.00 0.00 0.00 92 1010.6
20190121234105 19 22 2.0 2.0 0.00 0.00 0.00 100 1021.0
20190121233622 1 0 0.0 0.0 0.00 0.00 0.00 90 1010.6
20190121233604 19 22 1.0 3.0 0.00 0.00 0.00 100 1021.0
20190121233122 1 0 0.0 0.0 0.00 0.00 0.00 90 1010.6
20190121233104 19 22 2.0 2.0 0.00 0.00 0.00 100 1021.0
20190121232622 1 0 0.0 0.0 0.00 0.00 0.00 90 1010.7
20190121232604 19 22 2.0 3.0 0.00 0.00 0.00 100 1020.0
20190121232122 2 0 0.0 0.0 0.00 0.00 0.00 91 1010.8
20190121232104 19 22 2.0 2.0 0.00 0.00 0.00 100 1020.0
20190121231622 2 0 0.0 0.0 0.00 0.00 0.00 90 1010.8
20190121231605 19 22 2.0 2.0 0.00 0.00 0.00 100 1020.0
20190121231124 4 0 0.0 0.0 0.00 0.00 0.00 94 1010.8
20190121231106 19 22 2.0 3.0 0.00 0.00 0.00 100 1020.0
20190121230622 2 0 0.0 0.0 0.00 0.00 0.00 92 1010.7
20190121230605 20 22 2.0 3.0 0.00 0.00 0.00 100 1020.0
20190121230124 2 0 0.0 0.0 0.00 0.00 0.00 91 1010.6
20190121230104 20 45 2.0 3.0 0.00 0.00 0.00 100 1020.0
20190121225622 2 0 0.0 0.0 0.00 0.00 0.00 92 1010.7
20190121225604 20 45 2.0 3.0 0.00 0.00 0.00 100 1021.0
20190121225123 1 0 0.0 0.0 0.00 0.00 0.00 90 1010.8
20190121225104 20 22 2.0 3.0 0.00 0.00 0.00 100 1021.0
20190121224623 2 0 0.0 0.0 0.00 0.00 0.00 91 1010.9
20190121224604 20 22 2.0 2.0 0.00 0.00 0.00 100 1021.0
20190121224122 3 0 0.0 0.0 0.00 0.00 0.00 92 1010.9
20190121224104 20 90 0.0 2.0 0.00 0.00 0.00 100 1021.0
20190121223622 2 0 0.0 0.0 0.00 0.00 0.00 91 1011.0
20190121223604 20 90 2.0 2.0 0.00 0.00 0.00 100 1021.0
20190121223122 3 0 0.0 0.0 0.00 0.00 0.00 92 1011.1
20190121223106 20 112 0.0 3.0 0.00 0.00 0.00 100 1021.0
20190121222622 3 0 0.0 0.0 0.00 0.00 0.00 93 1010.9
20190121222604 20 128 3.0 5.0 0.00 0.00 0.00 100 1021.0
20190121222122 2 0 0.0 0.0 0.00 0.00 0.00 91 1010.9
20190121222104 20 123 3.0 7.0 0.00 0.00 0.00 100 1021.0
20190121221625 3 0 0.0 0.0 0.00 0.00 0.00 92 1011.0
20190121221604 20 77 6.0 7.0 0.00 0.00 0.00 100 1021.0
20190121221122 2 0 0.0 0.0 0.00 0.00 0.00 92 1011.0
20190121221104 20 73 5.0 6.0 0.00 0.00 0.00 100 1021.0
20190121220622 2 0 0.0 0.0 0.00 0.00 0.00 92 1011.1
20190121220605 20 72 5.0 7.0 0.00 0.00 0.00 100 1021.0
20190121220124 2 0 0.0 0.0 0.00 0.00 0.00 90 1011.1
20190121220105 20 73 5.0 7.0 0.00 0.00 0.00 100 1021.0
20190121215622 3 0 0.0 0.0 0.00 0.00 0.00 93 1011.2
20190121215604 20 68 6.0 7.0 0.00 0.00 0.00 100 1021.0
20190121215122 3 0 0.0 0.0 0.00 0.00 0.00 92 1011.2
20190121215105 20 69 5.0 7.0 0.00 0.00 0.00 100 1021.0
20190121214622 3 0 0.0 0.0 0.00 0.00 0.00 93 1011.3
20190121214604 20 68 4.0 6.0 0.00 0.00 0.00 100 1021.0
20190121214122 3 0 0.0 0.0 0.00 0.00 0.00 92 1011.2
20190121214104 20 79 3.0 5.0 0.00 0.00 0.00 100 1021.0
20190121213622 3 0 0.0 0.0 0.00 0.00 0.00 92 1011.2
20190121213604 21 68 5.0 6.0 0.00 0.00 0.00 100 1021.0
20190121213123 3 0 0.0 0.0 0.00 0.00 0.00 92 1011.3
20190121213105 20 63 4.0 5.0 0.00 0.00 0.00 100 1021.0
20190121212622 3 0 0.0 0.0 0.00 0.00 0.00 93 1011.4
20190121212604 20 58 3.0 5.0 0.00 0.00 0.00 100 1021.0
20190121212122 3 0 0.0 0.0 0.00 0.00 0.00 92 1011.4
20190121212105 20 68 3.0 6.0 0.00 0.00 0.00 100 1021.0
20190121211622 3 0 0.0 0.0 0.00 0.00 0.00 92 1011.4
20190121211605 20 63 4.0 6.0 0.00 0.00 0.00 100 1021.0
20190121211122 3 0 0.0 0.0 0.00 0.00 0.00 92 1011.4
20190121211104 20 66 5.0 6.0 0.00 0.00 0.00 100 1021.0
20190121210622 4 0 0.0 0.0 0.00 0.00 0.00 92 1011.5
20190121210605 20 68 4.0 5.0 0.00 0.00 0.00 100 1021.0
20190121210123 4 0 0.0 0.0 0.00 0.00 0.00 93 1011.5
20190121210104 20 78 4.0 5.0 0.00 0.00 0.00 100 1021.0
20190121205621 4 0 0.0 0.0 0.00 0.00 0.00 92 1011.5
20190121205604 21 68 4.0 5.0 0.00 0.00 0.00 100 1021.0
20190121205122 4 0 0.0 0.0 0.00 0.00 0.00 93 1011.5
20190121205104 20 88 3.0 5.0 0.00 0.00 0.00 100 1021.0
20190121204622 4 0 0.0 0.0 0.00 0.00 0.00 93 1011.4
20190121204605 20 45 2.0 3.0 0.00 0.00 0.00 100 1021.0
20190121204121 3 0 0.0 0.0 0.00 0.00 0.00 92 1011.6
20190121204104 21 68 3.0 5.0 0.00 0.00 0.00 100 1021.0
20190121203621 4 0 0.0 0.0 0.00 0.00 0.00 93 1011.5
20190121203605 21 112 2.0 2.0 0.00 0.00 0.00 100 1021.0
20190121203122 4 0 0.0 0.0 0.00 0.00 0.00 93 1011.5
20190121203113 21 112 2.0 5.0 0.00 0.00 0.00 100 1021.0
20190121202622 4 0 0.0 0.0 0.00 0.00 0.00 93 1011.5
20190121202614 21 90 1.0 3.0 0.00 0.00 0.00 100 1021.0
20190121202122 4 0 0.0 0.0 0.00 0.00 0.00 93 1011.5
20190121202112 21 90 3.0 3.0 0.00 0.00 0.00 100 1021.0
20190121201622 4 0 0.0 0.0 0.00 0.00 0.00 93 1011.5
20190121201613 21 45 2.0 2.0 0.00 0.00 0.00 100 1021.0
20190121201121 5 0 0.0 0.0 0.00 0.00 0.00 94 1011.5
20190121201113 22 45 2.0 3.0 0.00 0.00 0.00 100 1021.0
20190121200621 5 0 0.0 0.0 0.00 0.00 0.00 94 1011.6
20190121200613 22 104 2.0 3.0 0.00 0.00 0.00 100 1021.0
20190121200123 5 0 0.0 0.0 0.00 0.00 0.00 94 1011.7
20190121200114 22 68 3.0 5.0 0.00 0.00 0.00 100 1021.0
20190121195622 4 0 0.0 0.0 0.00 0.00 0.00 93 1011.7
20190121195613 22 57 3.0 5.0 0.00 0.00 0.00 100 1021.0
20190121195122 5 0 0.0 0.0 0.00 0.00 0.00 94 1011.8
20190121195113 22 54 3.0 3.0 0.00 0.00 0.00 100 1021.0
20190121194622 5 0 0.0 0.0 0.00 0.00 0.00 94 1011.8
20190121194613 22 45 3.0 5.0 0.00 0.00 0.00 100 1021.0
20190121194122 5 0 0.0 0.0 0.00 0.00 0.00 94 1011.8
20190121194113 22 68 4.0 5.0 0.00 0.00 0.00 100 1021.0
20190121193621 5 0 0.0 0.0 0.00 0.00 0.00 94 1011.8
20190121193612 22 67 3.0 5.0 0.00 0.00 0.00 100 1021.0
20190121193121 5 0 0.0 0.0 0.00 0.00 0.00 95 1011.9
20190121193114 22 45 3.0 5.0 0.00 0.00 0.00 100 1021.0
20190121192622 5 0 0.0 0.0 0.00 0.00 0.00 94 1011.8
20190121192613 22 73 5.0 5.0 0.00 0.00 0.00 100 1021.0
20190121192122 5 0 0.0 0.0 0.00 0.00 0.00 94 1011.9
20190121192113 22 86 3.0 5.0 0.00 0.00 0.00 100 1021.0
20190121191623 5 0 0.0 0.0 0.00 0.00 0.00 93 1011.8
20190121191613 22 112 2.0 3.0 0.00 0.00 0.00 100 1021.0
20190121191122 5 0 0.0 0.0 0.00 0.00 0.00 94 1011.9
20190121191113 22 112 3.0 3.0 0.00 0.00 0.00 100 1021.0
20190121190622 6 0 0.0 0.0 0.00 0.00 0.00 94 1011.9
20190121190613 22 112 2.0 2.0 0.00 0.00 0.00 100 1021.0
20190121190123 5 0 0.0 0.0 0.00 0.00 0.00 94 1011.9
20190121190112 22 112 0.0 2.0 0.00 0.00 0.00 100 1021.0
20190121185622 6 0 0.0 0.0 0.00 0.00 0.00 94 1011.9
20190121185612 22 112 0.0 2.0 0.00 0.00 0.00 100 1021.0
20190121185122 6 0 0.0 0.0 0.00 0.00 0.00 95 1011.9
20190121185114 23 112 0.0 2.0 0.00 0.00 0.00 100 1021.0
20190121184622 6 0 0.0 0.0 0.00 0.00 0.00 94 1011.9
20190121184614 23 112 2.0 3.0 0.00 0.00 0.00 100 1021.0
20190121184122 6 0 0.0 0.0 0.00 0.00 0.00 94 1011.9
20190121184113 23 112 2.0 3.0 0.00 0.00 0.00 100 1020.0
20190121183622 7 0 0.0 0.0 0.00 0.00 0.00 96 1012.0
20190121183613 23 112 2.0 3.0 0.00 0.00 0.00 100 1020.0
20190121183122 6 0 0.0 0.0 0.00 0.00 0.00 94 1012.0
20190121183113 23 112 2.0 3.0 0.00 0.00 0.00 100 1020.0
20190121182622 6 0 0.0 0.0 0.00 0.00 0.00 94 1012.0
20190121182613 23 90 3.0 3.0 0.00 0.00 0.00 100 1020.0
20190121182121 7 0 0.0 0.0 0.00 0.00 0.00 95 1012.0
20190121182113 23 112 3.0 5.0 0.00 0.00 0.00 100 1020.0
20190121181622 7 0 0.0 0.0 0.00 0.00 0.00 95 1012.1
20190121181613 23 68 3.0 5.0 0.00 0.00 0.00 100 1020.0
20190121181122 7 0 0.0 0.0 0.00 0.00 0.00 96 1012.0
20190121181113 23 112 3.0 5.0 0.00 0.00 0.00 100 1020.0
20190121180622 6 0 0.0 0.0 0.00 0.00 0.00 94 1012.0
20190121180613 23 112 2.0 3.0 0.00 0.00 0.00 100 1020.0
20190121180123 7 0 0.0 0.0 0.00 0.00 0.00 95 1012.1
20190121180113 23 112 2.0 3.0 0.00 0.00 0.00 100 1020.0
20190121175622 7 0 0.0 0.0 0.00 0.00 0.00 95 1012.1
20190121175613 23 112 2.0 3.0 0.00 0.00 0.00 100 1020.0
20190121175121 7 0 0.0 0.0 0.00 0.00 0.00 94 1012.0
20190121175113 23 112 0.0 2.0 0.00 0.00 0.00 100 1020.0
20190121174622 7 0 0.0 0.0 0.00 0.00 0.00 95 1012.0
20190121174613 23 112 1.0 2.0 0.00 0.00 0.00 100 1020.0
20190121174122 7 0 0.0 0.0 0.00 0.00 0.00 94 1012.0
20190121174113 23 112 2.0 3.0 0.00 0.00 0.00 100 1020.0
20190121173622 7 0 0.0 0.0 0.00 0.00 0.00 94 1012.1
20190121173613 23 112 1.0 2.0 0.00 0.00 0.00 100 1020.0
20190121173121 8 0 0.0 0.0 0.00 0.00 0.00 94 1012.1
20190121173113 23 112 0.0 2.0 0.00 0.00 0.00 100 1020.0
20190121172622 8 0 0.0 0.0 0.00 0.00 0.00 95 1012.1
20190121172613 24 112 2.0 3.0 0.00 0.00 0.00 100 1020.0
20190121172122 8 0 0.0 0.0 0.00 0.00 0.00 94 1012.0
20190121172113 24 112 2.0 2.0 0.00 0.00 0.00 100 1020.0
20190121171621 8 0 0.0 0.0 0.00 0.00 0.00 94 1012.2
20190121171613 24 112 0.0 1.0 0.00 0.00 0.00 100 1020.0
20190121171121 7 0 0.0 0.0 0.00 0.00 0.00 92 1012.1
20190121171113 24 112 1.0 2.0 0.00 0.00 0.00 100 1020.0
20190121170622 8 0 0.0 0.0 0.00 0.00 0.00 92 1012.2
20190121170612 24 112 2.0 3.0 0.00 0.00 0.00 100 1020.0
20190121170123 9 0 0.0 0.0 0.00 0.00 0.00 93 1012.1
20190121170113 24 112 2.0 3.0 0.00 0.00 0.00 100 1020.0
20190121165621 8 0 0.0 0.0 0.00 0.00 0.00 92 1012.1
20190121165613 24 112 3.0 5.0 0.00 0.00 0.00 100 1020.0
20190121165121 8 0 0.0 0.0 0.00 0.00 0.00 93 1012.0
20190121165113 24 112 2.0 2.0 0.00 0.00 0.00 100 1020.0
20190121164622 8 0 0.0 0.0 0.00 0.00 0.00 92 1012.1
20190121164613 24 112 1.0 2.0 0.00 0.00 0.00 100 1020.0
20190121164122 8 0 0.0 0.0 0.00 0.00 0.00 92 1012.1
20190121164112 24 112 1.0 2.0 0.00 0.00 0.00 100 1020.0
20190121163622 8 0 0.0 0.0 0.00 0.00 0.00 91 1012.2
20190121163613 24 112 0.0 1.0 0.00 0.00 0.00 100 1020.0
20190121163122 9 0 0.0 0.0 0.00 0.00 0.00 92 1012.1
20190121163113 24 112 0.0 2.0 0.00 0.00 0.00 100 1020.0
20190121162621 8 0 0.0 0.0 0.00 0.00 0.00 90 1012.1
20190121162613 24 112 2.0 2.0 0.00 0.00 0.00 100 1020.0
20190121162122 9 0 0.0 0.0 0.00 0.00 0.00 91 1012.2
20190121162113 25 112 0.0 1.0 0.00 0.00 0.00 100 1020.0
20190121161621 9 0 0.0 0.0 0.00 0.00 0.00 91 1012.2
20190121161613 25 112 0.0 0.0 0.00 0.00 0.00 100 1020.0
20190121161121 8 0 0.0 0.0 0.00 0.00 0.00 88 1012.3
20190121161113 25 112 0.0 0.0 0.00 0.00 0.00 100 1020.0
20190121160622 9 0 0.0 0.0 0.00 0.00 0.00 90 1012.3
20190121160613 25 112 0.0 0.0 0.00 0.00 0.00 100 1020.0
20190121160123 9 0 0.0 0.0 0.00 0.00 0.00 90 1012.4
20190121160112 26 112 0.0 0.0 0.00 0.00 0.00 100 1020.0
20190121155623 9 0 0.0 0.0 0.00 0.00 0.00 89 1012.4
20190121155613 26 112 0.0 0.0 0.00 0.00 0.00 100 1019.0
20190121155122 9 0 0.0 0.0 0.00 0.00 0.00 89 1012.5
20190121155113 26 112 0.0 0.0 0.00 0.00 0.00 100 1019.0
20190121154622 10 0 0.0 0.0 0.00 0.00 0.00 88 1012.5
20190121154612 27 112 0.0 0.0 0.00 0.00 0.00 100 1019.0
20190121154122 11 0 0.0 0.0 0.00 0.00 0.00 88 1012.7
20190121154113 27 112 0.0 0.0 0.00 0.00 0.00 100 1019.0
20190121153621 10 0 0.0 0.0 0.00 0.00 0.00 88 1012.5
20190121153613 27 202 0.0 0.0 0.00 0.00 0.00 100 1019.0
20190121153121 10 0 0.0 0.0 0.00 0.00 0.00 87 1012.6
20190121153113 28 248 1.0 1.0 0.00 0.00 0.00 100 1019.0
20190121152621 11 0 0.0 0.0 0.00 0.00 0.00 87 1012.5
20190121152613 28 248 0.0 1.0 0.00 0.00 0.00 100 1019.0
20190121152121 11 0 0.0 0.0 0.00 0.00 0.00 86 1012.7
20190121152113 28 248 0.0 1.0 0.00 0.00 0.00 100 1019.0
20190121151622 11 0 0.0 0.0 0.00 0.00 0.00 86 1012.8
20190121151613 29 248 2.0 2.0 0.00 0.00 0.00 100 1019.0
20190121151122 12 0 0.0 0.0 0.00 0.00 0.00 86 1012.9
20190121151113 29 248 1.0 2.0 0.00 0.00 0.00 100 1018.0
20190121150621 11 0 0.0 0.0 0.00 0.00 0.00 84 1013.1
20190121150613 29 248 1.0 2.0 0.00 0.00 0.00 100 1018.0
20190121150122 13 0 0.0 0.0 0.00 0.00 0.00 83 1013.3
20190121150113 30 248 1.0 2.0 0.00 0.00 0.00 100 1018.0
20190121145621 13 0 0.0 0.0 0.00 0.00 0.00 83 1013.3
20190121145612 30 248 2.0 2.0 0.00 0.00 0.00 100 1018.0
20190121145121 14 0 0.0 0.0 0.00 0.00 0.00 82 1013.5
20190121145113 30 248 1.0 2.0 0.00 0.00 0.00 100 1018.0
20190121144622 14 0 0.0 0.0 0.00 0.00 0.00 81 1013.6
20190121144613 30 248 1.0 2.0 0.00 0.00 0.00 100 1018.0
20190121144121 15 0 0.0 0.0 0.00 0.00 0.00 80 1013.9
20190121144113 30 248 1.0 2.0 0.00 0.00 0.00 100 1019.0
20190121143625 16 0 0.0 0.0 0.00 0.00 0.00 78 1014.0
20190121143613 30 248 1.0 3.0 0.00 0.00 0.00 100 1019.0
20190121143121 17 0 0.0 0.0 0.00 0.00 0.00 78 1014.3
20190121143113 31 248 1.0 3.0 0.00 0.00 0.00 100 1019.0
20190121142621 17 0 0.0 0.0 0.00 0.00 0.00 76 1014.6
20190121142613 31 248 1.0 3.0 0.00 0.00 0.00 100 1019.0
20190121142122 18 0 0.0 0.0 0.00 0.00 0.00 74 1014.9
20190121142113 31 286 2.0 3.0 0.00 0.00 0.00 100 1019.0
20190121141621 19 0 0.0 0.0 0.00 0.00 0.00 75 1015.1
20190121141612 31 22 2.0 2.0 0.00 0.00 0.00 100 1019.0
20190121141121 20 0 0.0 0.0 0.00 0.00 0.00 74 1015.2
20190121141113 31 338 2.0 5.0 0.00 0.00 0.00 100 1018.0
20190121140621 20 0 0.0 0.0 0.00 0.00 0.00 73 1015.4
20190121140613 31 292 2.0 3.0 0.00 0.00 0.00 100 1018.0
20190121140123 20 0 0.0 0.0 0.00 0.00 0.00 75 1015.6
20190121140113 31 240 2.0 5.0 0.00 0.00 0.00 100 1018.0
20190121135622 20 0 0.0 0.0 0.00 0.00 0.00 76 1015.9
20190121135613 31 325 3.0 5.0 0.00 0.00 0.00 100 1018.0
20190121135121 21 0 0.0 0.0 0.00 0.00 0.00 72 1015.9
20190121135113 31 292 4.0 6.0 0.00 0.00 0.00 100 1018.0
20190121134621 22 0 0.0 0.0 0.00 0.00 0.00 73 1015.9
20190121134615 31 305 3.0 5.0 0.00 0.00 0.00 100 1018.0
20190121134121 21 0 0.0 0.0 0.00 0.00 0.00 73 1016.0
20190121134113 31 327 5.0 6.0 0.00 0.00 0.00 100 1019.0
20190121133621 22 0 0.0 0.0 0.00 0.00 0.00 73 1016.1
20190121133612 31 269 3.0 5.0 0.00 0.00 0.00 100 1019.0
20190121133122 22 0 0.0 0.0 0.00 0.00 0.00 73 1016.2
20190121133113 31 328 3.0 5.0 0.00 0.00 0.00 100 1019.0
20190121132622 21 0 0.0 0.0 0.00 0.00 0.00 73 1016.4
20190121132613 31 314 4.0 6.0 0.00 0.00 0.00 100 1020.0
20190121132121 22 0 0.0 0.0 0.00 0.00 0.00 71 1016.5
20190121132112 31 298 5.0 6.0 0.00 0.00 0.00 100 1020.0
20190121131621 22 0 0.0 0.0 0.00 0.00 0.00 72 1016.6
20190121131613 32 302 5.0 6.0 0.00 0.00 0.00 100 1020.0
20190121131122 22 0 0.0 0.0 0.00 0.00 0.00 71 1016.7
20190121131112 32 337 5.0 7.0 0.00 0.00 0.00 100 1021.0
20190121130621 22 0 0.0 0.0 0.00 0.00 0.00 71 1016.8
20190121130612 33 338 5.0 7.0 0.00 0.00 0.00 100 1021.0
20190121130122 22 0 0.0 0.0 0.00 0.00 0.00 71 1016.8
20190121130113 32 333 5.0 6.0 0.00 0.00 0.00 100 1021.0
20190121125621 22 0 0.0 0.0 0.00 0.00 0.00 71 1016.8
20190121125613 32 9 3.0 6.0 0.00 0.00 0.00 100 1021.0
20190121125121 22 0 0.0 0.0 0.00 0.00 0.00 71 1016.9
20190121125113 32 358 5.0 6.0 0.00 0.00 0.00 100 1021.0
20190121124621 22 0 0.0 0.0 0.00 0.00 0.00 72 1016.8
20190121124613 32 347 2.0 6.0 0.00 0.00 0.00 100 1021.0
20190121124121 22 0 0.0 0.0 0.00 0.00 0.00 71 1016.9
20190121124113 32 295 3.0 7.0 0.00 0.00 0.00 100 1022.0
20190121123621 22 0 0.0 0.0 0.00 0.00 0.00 71 1017.0
20190121123612 32 338 3.0 6.0 0.00 0.00 0.00 100 1022.0
20190121123121 22 0 0.0 0.0 0.00 0.00 0.00 71 1017.0
20190121123112 31 348 3.0 6.0 0.00 0.00 0.00 100 1022.0
20190121122621 22 0 0.0 0.0 0.00 0.00 0.00 72 1017.0
20190121122612 31 322 3.0 6.0 0.00 0.00 0.00 100 1022.0
20190121122121 22 0 0.0 0.0 0.00 0.00 0.00 71 1017.0
20190121122113 31 292 2.0 7.0 0.00 0.00 0.00 100 1022.0
20190121121621 22 0 0.0 0.0 0.00 0.00 0.00 73 1017.0
20190121121613 31 320 5.0 7.0 0.00 0.00 0.00 100 1022.0
20190121121121 21 0 0.0 0.0 0.00 0.00 0.00 74 1017.0
20190121121113 31 338 3.0 6.0 0.00 0.00 0.00 100 1024.0
20190121120621 21 0 0.0 0.0 0.00 0.00 0.00 73 1017.0
20190121120613 31 338 5.0 7.0 0.00 0.00 0.00 100 1024.0
20190121120123 21 0 0.0 0.0 0.00 0.00 0.00 73 1017.0
20190121120113 31 331 3.0 5.0 0.00 0.00 0.00 100 1024.0
20190121115620 21 0 0.0 0.0 0.00 0.00 0.00 74 1016.9
20190121115612 31 326 3.0 5.0 0.00 0.00 0.00 100 1024.0
20190121115122 21 0 0.0 0.0 0.00 0.00 0.00 74 1017.0
20190121115112 31 327 4.0 6.0 0.00 0.00 0.00 100 1024.0
20190121114621 21 0 0.0 0.0 0.00 0.00 0.00 74 1017.1
20190121114613 30 338 2.0 5.0 0.00 0.00 0.00 100 1024.0
20190121114121 21 0 0.0 0.0 0.00 0.00 0.00 74 1017.1
20190121114113 29 285 2.0 6.0 0.00 0.00 0.00 100 1024.0
20190121113621 20 0 0.0 0.0 0.00 0.00 0.00 74 1017.2
20190121113613 29 301 3.0 7.0 0.00 0.00 0.00 100 1024.0
20190121113122 20 0 0.0 0.0 0.00 0.00 0.00 75 1017.3
20190121113112 30 331 3.0 6.0 0.00 0.00 0.00 100 1024.0
20190121112621 20 0 0.0 0.0 0.00 0.00 0.00 74 1017.3
20190121112612 29 316 3.0 5.0 0.00 0.00 0.00 100 1024.0
20190121112122 20 0 0.0 0.0 0.00 0.00 0.00 75 1017.2
20190121112113 29 326 3.0 6.0 0.00 0.00 0.00 100 1024.0
20190121111621 20 0 0.0 0.0 0.00 0.00 0.00 76 1017.5
20190121111612 29 310 3.0 5.0 0.00 0.00 0.00 100 1024.0
20190121111121 19 0 0.0 0.0 0.00 0.00 0.00 77 1017.3
20190121111113 29 336 1.0 3.0 0.00 0.00 0.00 100 1024.0
20190121110621 19 0 0.0 0.0 0.00 0.00 0.00 77 1017.4
20190121110613 29 10 3.0 7.0 0.00 0.00 0.00 100 1024.0
20190121110122 19 0 0.0 0.0 0.00 0.00 0.00 78 1017.5
20190121110113 28 338 2.0 5.0 0.00 0.00 0.00 100 1024.0
20190121105621 18 0 0.0 0.0 0.00 0.00 0.00 78 1017.7
20190121105612 28 315 3.0 6.0 0.00 0.00 0.00 100 1024.0
20190121105121 18 0 0.0 0.0 0.00 0.00 0.00 78 1017.8
20190121105113 28 315 3.0 5.0 0.00 0.00 0.00 100 1024.0
20190121104621 19 0 0.0 0.0 0.00 0.00 0.00 77 1017.9
20190121104613 27 299 5.0 5.0 0.00 0.00 0.00 100 1024.0
20190121104120 19 0 0.0 0.0 0.00 0.00 0.00 78 1017.9
20190121104113 27 348 2.0 6.0 0.00 0.00 0.00 100 1024.0
20190121103621 19 0 0.0 0.0 0.00 0.00 0.00 78 1018.0
20190121103612 27 297 3.0 5.0 0.00 0.00 0.00 100 1024.0
20190121103124 19 0 0.0 0.0 0.00 0.00 0.00 78 1018.0
20190121103113 27 312 3.0 5.0 0.00 0.00 0.00 100 1024.0
20190121102621 19 0 0.0 0.0 0.00 0.00 0.00 79 1018.0
20190121102612 26 323 3.0 7.0 0.00 0.00 0.00 100 1024.0
20190121102121 19 0 0.0 0.0 0.00 0.00 0.00 78 1017.9
20190121102112 27 292 3.0 6.0 0.00 0.00 0.00 100 1024.0
20190121101621 18 0 0.0 0.0 0.00 0.00 0.00 78 1017.9
20190121101612 26 292 2.0 5.0 0.00 0.00 0.00 100 1024.0
20190121101121 18 0 0.0 0.0 0.00 0.00 0.00 83 1017.9
20190121101113 26 333 2.0 5.0 0.00 0.00 0.00 100 1023.0
20190121100621 17 0 0.0 0.0 0.00 0.00 0.00 84 1017.7
20190121100613 26 336 3.0 6.0 0.00 0.00 0.00 100 1023.0
20190121100122 16 0 0.0 0.0 0.00 0.00 0.00 84 1017.6
20190121100112 27 306 3.0 6.0 0.00 0.00 0.00 100 1023.0
20190121095623 16 0 0.0 0.0 0.00 0.00 0.00 82 1017.6
20190121095613 26 338 4.0 5.0 0.00 0.00 0.00 100 1023.0
20190121095121 16 0 0.0 0.0 0.00 0.00 0.00 83 1017.5
20190121095113 26 338 3.0 5.0 0.00 0.00 0.00 100 1023.0
20190121094621 14 0 0.0 0.0 0.00 0.00 0.00 84 1017.3
20190121094613 25 338 3.0 5.0 0.00 0.00 0.00 100 1023.0
20190121094121 14 0 0.0 0.0 0.00 0.00 0.00 84 1017.4
20190121094113 25 325 3.0 5.0 0.00 0.00 0.00 100 1023.0
20190121093621 13 0 0.0 0.0 0.00 0.00 0.00 85 1017.3
20190121093613 25 338 3.0 5.0 0.00 0.00 0.00 100 1023.0
20190121093121 13 0 0.0 0.0 0.00 0.00 0.00 84 1017.2
20190121093113 25 341 5.0 6.0 0.00 0.00 0.00 100 1023.0
20190121092621 14 0 0.0 0.0 0.00 0.00 0.00 86 1017.2
20190121092613 25 317 5.0 7.0 0.00 0.00 0.00 100 1023.0
20190121092121 14 0 0.0 0.0 0.00 0.00 0.00 90 1017.2
20190121092117 25 338 5.0 7.0 0.00 0.00 0.00 100 1023.0
20190121091621 13 0 0.0 0.0 0.00 0.00 0.00 88 1017.1
20190121091613 25 332 3.0 7.0 0.00 0.00 0.00 100 1023.0
20190121091121 12 0 0.0 0.0 0.00 0.00 0.00 88 1016.8
20190121091112 24 332 4.0 7.0 0.00 0.00 0.00 100 1022.0
20190121090620 12 0 0.0 0.0 0.00 0.00 0.00 87 1016.8
20190121090612 24 15 3.0 7.0 0.00 0.00 0.00 100 1022.0
20190121090123 12 0 0.0 0.0 0.00 0.00 0.00 91 1016.5
20190121090112 24 338 3.0 7.0 0.00 0.00 0.00 100 1022.0
20190121085620 11 0 0.0 0.0 0.00 0.00 0.00 90 1016.2
20190121085613 24 338 4.0 7.0 0.00 0.00 0.00 100 1022.0
20190121085121 10 0 0.0 0.0 0.00 0.00 0.00 90 1016.0
20190121085112 24 328 2.0 5.0 0.00 0.00 0.00 100 1022.0
20190121084621 10 0 0.0 0.0 0.00 0.00 0.00 90 1016.2
20190121084613 23 22 2.0 3.0 0.00 0.00 0.00 100 1022.0
20190121084121 10 0 0.0 0.0 0.00 0.00 0.00 90 1016.3
20190121084113 23 341 1.0 3.0 0.00 0.00 0.00 100 1022.0
20190121083621 10 0 0.0 0.0 0.00 0.00 0.00 90 1016.2
20190121083613 23 338 1.0 2.0 0.00 0.00 0.00 100 1022.0
20190121083120 11 0 0.0 0.0 0.00 0.00 0.00 93 1016.1
20190121083112 22 338 1.0 2.0 0.00 0.00 0.00 100 1022.0
20190121082621 10 0 0.0 0.0 0.00 0.00 0.00 94 1016.0
20190121082613 22 338 0.0 2.0 0.00 0.00 0.00 100 1024.0
20190121082121 10 0 0.0 0.0 0.00 0.00 0.00 93 1015.8
20190121082112 22 338 1.0 2.0 0.00 0.00 0.00 100 1024.0
20190121081621 9 0 0.0 0.0 0.00 0.00 0.00 92 1015.5
20190121081614 22 338 1.0 2.0 0.00 0.00 0.00 100 1024.0
20190121081121 9 0 0.0 0.0 0.00 0.00 0.00 93 1015.2
20190121081113 22 0 0.0 0.0 0.00 0.00 0.00 100 1023.0
20190121080620 8 0 0.0 0.0 0.00 0.00 0.00 93 1015.0
20190121080613 21 0 0.0 1.0 0.00 0.00 0.00 100 1023.0
20190121080123 8 0 0.0 0.0 0.00 0.00 0.00 93 1014.8
20190121080112 22 0 0.0 0.0 0.00 0.00 0.00 100 1023.0
20190121075621 7 0 0.0 0.0 0.00 0.00 0.00 93 1014.7
20190121075613 21 0 0.0 0.0 0.00 0.00 0.00 100 1023.0
20190121075120 6 0 0.0 0.0 0.00 0.00 0.00 93 1014.4
20190121075113 20 0 0.0 0.0 0.00 0.00 0.00 100 1023.0
20190121074621 6 0 0.0 0.0 0.00 0.00 0.00 93 1014.2
20190121074615 20 0 0.0 0.0 0.00 0.00 0.00 100 1023.0
20190121074121 5 0 0.0 0.0 0.00 0.00 0.00 92 1014.0
20190121074113 19 0 0.0 1.0 0.00 0.00 0.00 100 1023.0
20190121073621 5 0 0.0 0.0 0.00 0.00 0.00 92 1013.9
20190121073612 19 0 1.0 2.0 0.00 0.00 0.00 100 1023.0
20190121073120 5 0 0.0 0.0 0.00 0.00 0.00 92 1013.6
20190121073113 19 0 0.0 1.0 0.00 0.00 0.00 100 1023.0
20190121072620 6 0 0.0 0.0 0.00 0.00 0.00 92 1013.3
20190121072613 18 0 0.0 2.0 0.00 0.00 0.00 100 1023.0
20190121072121 5 0 0.0 0.0 0.00 0.00 0.00 92 1012.9
20190121072112 18 0 2.0 2.0 0.00 0.00 0.00 100 1023.0
20190121071620 6 0 0.0 0.0 0.00 0.00 0.00 93 1012.7
20190121071613 18 0 1.0 2.0 0.00 0.00 0.00 100 1023.0
20190121071120 4 0 0.0 0.0 0.00 0.00 0.00 92 1012.6
20190121071113 17 0 1.0 2.0 0.00 0.00 0.00 100 1023.0
20190121070621 3 0 0.0 0.0 0.00 0.00 0.00 91 1012.4
20190121070613 17 0 0.0 2.0 0.00 0.00 0.00 100 1023.0
20190121070122 3 0 0.0 0.0 0.00 0.00 0.00 92 1012.4
20190121070113 17 0 1.0 2.0 0.00 0.00 0.00 100 1023.0
20190121065621 3 0 0.0 0.0 0.00 0.00 0.00 92 1012.3
20190121065613 17 0 1.0 2.0 0.00 0.00 0.00 100 1023.0
20190121065121 3 0 0.0 0.0 0.00 0.00 0.00 92 1012.3
20190121065112 17 0 1.0 2.0 0.00 0.00 0.00 100 1023.0
20190121064620 2 0 0.0 0.0 0.00 0.00 0.00 92 1012.2
20190121064612 17 0 1.0 2.0 0.00 0.00 0.00 100 1023.0
20190121064123 3 0 0.0 0.0 0.00 0.00 0.00 92 1012.2
20190121064112 17 0 2.0 2.0 0.00 0.00 0.00 100 1022.0
20190121063621 2 0 0.0 0.0 0.00 0.00 0.00 91 1012.1
20190121063613 17 338 1.0 2.0 0.00 0.00 0.00 100 1022.0
20190121063121 3 0 0.0 0.0 0.00 0.00 0.00 92 1012.0
20190121063113 17 68 2.0 2.0 0.00 0.00 0.00 100 1022.0
20190121062621 3 0 0.0 0.0 0.00 0.00 0.00 92 1012.0
20190121062613 18 68 1.0 2.0 0.00 0.00 0.00 100 1022.0
20190121062120 2 0 0.0 0.0 0.00 0.00 0.00 91 1012.0
20190121062112 18 68 2.0 3.0 0.00 0.00 0.00 100 1022.0
20190121061621 3 0 0.0 0.0 0.00 0.00 0.00 92 1011.9
20190121061612 18 338 2.0 3.0 0.00 0.00 0.00 100 1022.0
20190121061121 3 0 0.0 0.0 0.00 0.00 0.00 92 1011.8
20190121061112 18 338 2.0 3.0 0.00 0.00 0.00 100 1022.0
20190121060621 2 0 0.0 0.0 0.00 0.00 0.00 92 1011.7
20190121060613 17 338 2.0 2.0 0.00 0.00 0.00 100 1022.0
20190121060122 2 0 0.0 0.0 0.00 0.00 0.00 92 1011.7
20190121060112 17 338 2.0 3.0 0.00 0.00 0.00 100 1022.0
20190121055621 3 0 0.0 0.0 0.00 0.00 0.00 92 1011.7
20190121055612 17 338 2.0 3.0 0.00 0.00 0.00 100 1021.0
20190121055121 3 0 0.0 0.0 0.00 0.00 0.00 93 1011.7
20190121055112 17 338 2.0 2.0 0.00 0.00 0.00 100 1021.0
20190121054621 4 0 0.0 0.0 0.00 0.00 0.00 94 1011.6
20190121054612 17 338 2.0 3.0 0.00 0.00 0.00 100 1021.0
20190121054121 4 0 0.0 0.0 0.00 0.00 0.00 94 1011.5
20190121054113 17 338 1.0 2.0 0.00 0.00 0.00 100 1021.0
20190121053621 3 0 0.0 0.0 0.00 0.00 0.00 92 1011.5
20190121053613 17 338 0.0 1.0 0.00 0.00 0.00 100 1021.0
20190121053121 3 0 0.0 0.0 0.00 0.00 0.00 92 1011.5
20190121053112 17 338 1.0 2.0 0.00 0.00 0.00 100 1021.0
20190121052622 3 0 0.0 0.0 0.00 0.00 0.00 92 1011.5
20190121052613 17 338 1.0 5.0 0.00 0.00 0.00 100 1021.0
20190121052120 3 0 0.0 0.0 0.00 0.00 0.00 92 1011.4
20190121052113 17 308 2.0 3.0 0.00 0.00 0.00 100 1021.0
20190121051621 3 0 0.0 0.0 0.00 0.00 0.00 91 1011.5
20190121051612 17 338 2.0 5.0 0.00 0.00 0.00 100 1021.0
20190121051121 4 0 0.0 0.0 0.00 0.00 0.00 94 1011.5
20190121051112 17 338 2.0 2.0 0.00 0.00 0.00 100 1021.0
20190121050621 4 0 0.0 0.0 0.00 0.00 0.00 93 1011.5
20190121050612 17 341 2.0 3.0 0.00 0.00 0.00 100 1021.0
20190121050122 3 0 0.0 0.0 0.00 0.00 0.00 92 1011.5
20190121050113 17 338 2.0 3.0 0.00 0.00 0.00 100 1021.0
20190121045620 4 0 0.0 0.0 0.00 0.00 0.00 93 1011.6
20190121045613 17 338 2.0 3.0 0.00 0.00 0.00 100 1021.0
20190121045121 4 0 0.0 0.0 0.00 0.00 0.00 93 1011.6
20190121045113 17 338 3.0 5.0 0.00 0.00 0.00 100 1021.0
20190121044620 4 0 0.0 0.0 0.00 0.00 0.00 93 1011.6
20190121044612 17 338 2.0 5.0 0.00 0.00 0.00 100 1021.0
20190121044121 4 0 0.0 0.0 0.00 0.00 0.00 94 1011.6
20190121044113 17 338 3.0 5.0 0.00 0.00 0.00 100 1021.0
20190121043620 4 0 0.0 0.0 0.00 0.00 0.00 92 1011.5
20190121043612 17 338 3.0 5.0 0.00 0.00 0.00 100 1021.0
20190121043120 4 0 0.0 0.0 0.00 0.00 0.00 93 1011.6
20190121043113 17 338 4.0 5.0 0.00 0.00 0.00 100 1021.0
20190121042620 4 0 0.0 0.0 0.00 0.00 0.00 93 1011.5
20190121042613 17 317 4.0 5.0 0.00 0.00 0.00 100 1020.0
20190121042121 4 0 0.0 0.0 0.00 0.00 0.00 93 1011.5
20190121042112 17 315 3.0 5.0 0.00 0.00 0.00 100 1020.0
20190121041621 4 0 0.0 0.0 0.00 0.00 0.00 93 1011.5
20190121041613 17 338 3.0 5.0 0.00 0.00 0.00 100 1020.0
20190121041120 4 0 0.0 0.0 0.00 0.00 0.00 93 1011.5
20190121041112 17 331 4.0 5.0 0.00 0.00 0.00 100 1021.0
20190121040621 5 0 0.0 0.0 0.00 0.00 0.00 95 1011.6
20190121040613 17 315 3.0 5.0 0.00 0.00 0.00 100 1021.0
20190121040122 4 0 0.0 0.0 0.00 0.00 0.00 92 1011.6
20190121040112 17 292 3.0 3.0 0.00 0.00 0.00 100 1021.0
20190121035621 5 0 0.0 0.0 0.00 0.00 0.00 93 1011.6
20190121035612 17 292 3.0 5.0 0.00 0.00 0.00 100 1021.0
20190121035120 6 0 0.0 0.0 0.00 0.00 0.00 94 1011.6
20190121035112 17 314 3.0 5.0 0.00 0.00 0.00 100 1021.0
20190121034620 5 0 0.0 0.0 0.00 0.00 0.00 94 1011.6
20190121034612 17 338 4.0 5.0 0.00 0.00 0.00 100 1021.0
20190121034120 5 0 0.0 0.0 0.00 0.00 0.00 94 1011.6
20190121034112 17 338 3.0 5.0 0.00 0.00 0.00 100 1021.0
20190121033620 6 0 0.0 0.0 0.00 0.00 0.00 94 1011.6
20190121033612 17 338 2.0 3.0 0.00 0.00 0.00 100 1021.0
20190121033120 6 0 0.0 0.0 0.00 0.00 0.00 95 1011.5
20190121033113 18 338 2.0 3.0 0.00 0.00 0.00 100 1021.0
20190121032621 5 0 0.0 0.0 0.00 0.00 0.00 94 1011.6
20190121032613 18 0 2.0 2.0 0.00 0.00 0.00 100 1021.0
20190121032120 5 0 0.0 0.0 0.00 0.00 0.00 94 1011.6
20190121032112 18 0 2.0 2.0 0.00 0.00 0.00 100 1021.0
20190121031620 6 0 0.0 0.0 0.00 0.00 0.00 94 1011.6
20190121031613 18 0 1.0 2.0 0.00 0.00 0.00 100 1021.0
20190121031121 6 0 0.0 0.0 0.00 0.00 0.00 94 1011.6
20190121031113 18 0 1.0 2.0 0.00 0.00 0.00 100 1021.0
20190121030621 6 0 0.0 0.0 0.00 0.00 0.00 95 1011.6
20190121030612 18 0 1.0 2.0 0.00 0.00 0.00 100 1021.0
20190121030121 5 0 0.0 0.0 0.00 0.00 0.00 94 1011.5
20190121030113 19 0 2.0 2.0 0.00 0.00 0.00 100 1021.0
20190121025621 6 0 0.0 0.0 0.00 0.00 0.00 94 1011.6
20190121025612 18 0 1.0 2.0 0.00 0.00 0.00 100 1021.0
20190121025120 7 0 0.0 0.0 0.00 0.00 0.00 95 1011.6
20190121025113 18 0 2.0 2.0 0.00 0.00 0.00 100 1021.0
20190121024623 7 0 0.0 0.0 0.00 0.00 0.00 95 1011.6
20190121024613 18 0 2.0 2.0 0.00 0.00 0.00 100 1021.0
20190121024121 6 0 0.0 0.0 0.00 0.00 0.00 94 1011.5
20190121024113 18 0 1.0 2.0 0.00 0.00 0.00 100 1021.0
20190121023621 7 0 0.0 0.0 0.00 0.00 0.00 95 1011.6
20190121023613 19 0 1.0 2.0 0.00 0.00 0.00 100 1021.0
20190121023121 7 0 0.0 0.0 0.00 0.00 0.00 94 1011.6
20190121023112 19 0 1.0 2.0 0.00 0.00 0.00 100 1021.0
20190121022620 7 0 0.0 0.0 0.00 0.00 0.00 94 1011.5
20190121022613 19 0 1.0 2.0 0.00 0.00 0.00 100 1021.0
20190121022120 7 0 0.0 0.0 0.00 0.00 0.00 94 1011.4
20190121022113 19 0 1.0 2.0 0.00 0.00 0.00 100 1021.0